sensor_id;sensor_type;location;lat;lon;timestamp;P1;durP1;ratioP1;P2;durP2;ratioP2
29984;SDS011;17387;42.690;23.328;2022-11-20T00:01:37;10.40;;;6.47;;
29984;SDS011;17387;42.690;23.328;2022-11-20T00:04:03;8.82;;;5.95;;
29984;SDS011;17387;42.690;23.328;2022-11-20T00:06:30;6.68;;;4.32;;
29984;SDS011;17387;42.690;23.328;2022-11-20T00:08:56;6.53;;;3.83;;
29984;SDS011;17387;42.690;23.328;2022-11-20T00:11:23;11.50;;;5.07;;
29984;SDS011;17387;42.690;23.328;2022-11-20T00:13:52;8.85;;;4.72;;
29984;SDS011;17387;42.690;23.328;2022-11-20T00:16:19;8.30;;;4.30;;
29984;SDS011;17387;42.690;23.328;2022-11-20T00:18:47;7.35;;;4.50;;
29984;SDS011;17387;42.690;23.328;2022-11-20T00:21:16;8.07;;;3.60;;
29984;SDS011;17387;42.690;23.328;2022-11-20T00:23:43;5.63;;;2.97;;
29984;SDS011;17387;42.690;23.328;2022-11-20T00:26:10;6.35;;;1.70;;
29984;SDS011;17387;42.690;23.328;2022-11-20T00:28:37;5.78;;;1.88;;
29984;SDS011;17387;42.690;23.328;2022-11-20T00:31:10;3.83;;;1.92;;
29984;SDS011;17387;42.690;23.328;2022-11-20T00:33:40;6.63;;;2.88;;
29984;SDS011;17387;42.690;23.328;2022-11-20T00:36:08;4.57;;;2.10;;
29984;SDS011;17387;42.690;23.328;2022-11-20T00:38:35;6.95;;;2.38;;
29984;SDS011;17387;42.690;23.328;2022-11-20T00:41:01;3.78;;;1.63;;
29984;SDS011;17387;42.690;23.328;2022-11-20T00:43:29;6.45;;;1.45;;
29984;SDS011;17387;42.690;23.328;2022-11-20T00:46:01;3.58;;;1.10;;
29984;SDS011;17387;42.690;23.328;2022-11-20T00:48:28;4.47;;;1.00;;
29984;SDS011;17387;42.690;23.328;2022-11-20T00:50:54;6.25;;;1.60;;
29984;SDS011;17387;42.690;23.328;2022-11-20T00:53:20;6.97;;;1.00;;
29984;SDS011;17387;42.690;23.328;2022-11-20T00:55:58;5.47;;;1.20;;
29984;SDS011;17387;42.690;23.328;2022-11-20T00:58:28;2.35;;;1.02;;
29984;SDS011;17387;42.690;23.328;2022-11-20T01:00:59;4.05;;;1.10;;
29984;SDS011;17387;42.690;23.328;2022-11-20T01:03:36;4.93;;;1.00;;
29984;SDS011;17387;42.690;23.328;2022-11-20T01:06:04;2.25;;;1.10;;
29984;SDS011;17387;42.690;23.328;2022-11-20T01:08:32;5.68;;;1.13;;
29984;SDS011;17387;42.690;23.328;2022-11-20T01:11:02;12.27;;;1.10;;
29984;SDS011;17387;42.690;23.328;2022-11-20T01:16:09;2.67;;;0.95;;
29984;SDS011;17387;42.690;23.328;2022-11-20T01:18:47;1.67;;;0.95;;
29984;SDS011;17387;42.690;23.328;2022-11-20T01:21:24;5.45;;;1.00;;
29984;SDS011;17387;42.690;23.328;2022-11-20T01:23:52;2.03;;;0.95;;
29984;SDS011;17387;42.690;23.328;2022-11-20T01:26:20;2.88;;;1.00;;
29984;SDS011;17387;42.690;23.328;2022-11-20T01:28:47;3.22;;;1.23;;
29984;SDS011;17387;42.690;23.328;2022-11-20T01:31:17;4.65;;;1.20;;
29984;SDS011;17387;42.690;23.328;2022-11-20T01:33:43;2.55;;;0.90;;
29984;SDS011;17387;42.690;23.328;2022-11-20T01:36:10;2.40;;;1.00;;
29984;SDS011;17387;42.690;23.328;2022-11-20T01:38:37;6.30;;;1.20;;
29984;SDS011;17387;42.690;23.328;2022-11-20T01:41:02;1.95;;;0.93;;
29984;SDS011;17387;42.690;23.328;2022-11-20T01:43:28;5.40;;;1.23;;
29984;SDS011;17387;42.690;23.328;2022-11-20T01:48:44;5.43;;;1.10;;
29984;SDS011;17387;42.690;23.328;2022-11-20T01:54:00;6.20;;;1.65;;
29984;SDS011;17387;42.690;23.328;2022-11-20T01:56:30;2.97;;;1.70;;
29984;SDS011;17387;42.690;23.328;2022-11-20T01:59:01;5.05;;;1.70;;
29984;SDS011;17387;42.690;23.328;2022-11-20T02:01:29;2.38;;;1.20;;
29984;SDS011;17387;42.690;23.328;2022-11-20T02:03:54;4.53;;;1.67;;
29984;SDS011;17387;42.690;23.328;2022-11-20T02:06:25;2.83;;;1.52;;
29984;SDS011;17387;42.690;23.328;2022-11-20T02:08:54;3.78;;;1.20;;
29984;SDS011;17387;42.690;23.328;2022-11-20T02:11:20;3.80;;;1.40;;
29984;SDS011;17387;42.690;23.328;2022-11-20T02:13:46;4.70;;;1.20;;
29984;SDS011;17387;42.690;23.328;2022-11-20T02:19:12;1.92;;;0.90;;
29984;SDS011;17387;42.690;23.328;2022-11-20T02:24:27;2.70;;;1.00;;
29984;SDS011;17387;42.690;23.328;2022-11-20T02:27:00;2.80;;;0.90;;
29984;SDS011;17387;42.690;23.328;2022-11-20T02:29:34;3.20;;;1.00;;
29984;SDS011;17387;42.690;23.328;2022-11-20T02:32:04;3.97;;;1.17;;
29984;SDS011;17387;42.690;23.328;2022-11-20T02:34:29;1.67;;;1.20;;
29984;SDS011;17387;42.690;23.328;2022-11-20T02:36:54;6.72;;;1.05;;
29984;SDS011;17387;42.690;23.328;2022-11-20T02:39:21;2.95;;;1.17;;
29984;SDS011;17387;42.690;23.328;2022-11-20T02:41:50;2.40;;;1.00;;
29984;SDS011;17387;42.690;23.328;2022-11-20T02:44:18;3.88;;;1.10;;
29984;SDS011;17387;42.690;23.328;2022-11-20T02:46:43;2.38;;;1.10;;
29984;SDS011;17387;42.690;23.328;2022-11-20T02:49:08;5.57;;;1.10;;
29984;SDS011;17387;42.690;23.328;2022-11-20T02:51:34;2.97;;;1.02;;
29984;SDS011;17387;42.690;23.328;2022-11-20T02:53:59;4.72;;;1.10;;
29984;SDS011;17387;42.690;23.328;2022-11-20T02:56:25;4.35;;;1.50;;
29984;SDS011;17387;42.690;23.328;2022-11-20T02:58:50;2.33;;;0.95;;
29984;SDS011;17387;42.690;23.328;2022-11-20T03:01:16;5.05;;;1.35;;
29984;SDS011;17387;42.690;23.328;2022-11-20T03:03:41;2.85;;;1.10;;
29984;SDS011;17387;42.690;23.328;2022-11-20T03:06:07;4.97;;;1.55;;
29984;SDS011;17387;42.690;23.328;2022-11-20T03:08:33;4.13;;;1.17;;
29984;SDS011;17387;42.690;23.328;2022-11-20T03:11:02;4.00;;;1.45;;
29984;SDS011;17387;42.690;23.328;2022-11-20T03:13:31;4.72;;;1.52;;
29984;SDS011;17387;42.690;23.328;2022-11-20T03:15:57;4.43;;;1.40;;
29984;SDS011;17387;42.690;23.328;2022-11-20T03:18:23;3.63;;;1.20;;
29984;SDS011;17387;42.690;23.328;2022-11-20T03:20:48;3.95;;;1.20;;
29984;SDS011;17387;42.690;23.328;2022-11-20T03:23:13;3.08;;;1.10;;
29984;SDS011;17387;42.690;23.328;2022-11-20T03:25:39;8.25;;;1.20;;
29984;SDS011;17387;42.690;23.328;2022-11-20T03:28:04;4.82;;;1.30;;
29984;SDS011;17387;42.690;23.328;2022-11-20T03:30:30;3.00;;;1.50;;
29984;SDS011;17387;42.690;23.328;2022-11-20T03:32:55;4.95;;;1.30;;
29984;SDS011;17387;42.690;23.328;2022-11-20T03:35:20;7.72;;;1.50;;
29984;SDS011;17387;42.690;23.328;2022-11-20T03:37:46;4.20;;;1.40;;
29984;SDS011;17387;42.690;23.328;2022-11-20T03:40:11;3.88;;;1.10;;
29984;SDS011;17387;42.690;23.328;2022-11-20T03:42:37;3.95;;;1.20;;
29984;SDS011;17387;42.690;23.328;2022-11-20T03:45:15;5.68;;;1.15;;
29984;SDS011;17387;42.690;23.328;2022-11-20T03:47:42;3.33;;;1.40;;
29984;SDS011;17387;42.690;23.328;2022-11-20T03:50:09;3.53;;;1.30;;
29984;SDS011;17387;42.690;23.328;2022-11-20T03:52:35;7.60;;;1.15;;
29984;SDS011;17387;42.690;23.328;2022-11-20T03:55:01;3.10;;;1.27;;
29984;SDS011;17387;42.690;23.328;2022-11-20T03:57:26;3.42;;;1.10;;
29984;SDS011;17387;42.690;23.328;2022-11-20T03:59:52;4.78;;;1.30;;
29984;SDS011;17387;42.690;23.328;2022-11-20T04:02:17;6.43;;;1.38;;
29984;SDS011;17387;42.690;23.328;2022-11-20T04:04:43;2.38;;;1.30;;
29984;SDS011;17387;42.690;23.328;2022-11-20T04:07:08;5.65;;;1.20;;
29984;SDS011;17387;42.690;23.328;2022-11-20T04:09:33;4.90;;;1.10;;
29984;SDS011;17387;42.690;23.328;2022-11-20T04:11:59;4.85;;;1.10;;
29984;SDS011;17387;42.690;23.328;2022-11-20T04:14:24;5.90;;;1.10;;
29984;SDS011;17387;42.690;23.328;2022-11-20T04:16:49;3.70;;;1.17;;
29984;SDS011;17387;42.690;23.328;2022-11-20T04:19:15;1.95;;;1.10;;
29984;SDS011;17387;42.690;23.328;2022-11-20T04:21:41;2.50;;;1.30;;
29984;SDS011;17387;42.690;23.328;2022-11-20T04:24:08;7.05;;;1.20;;
29984;SDS011;17387;42.690;23.328;2022-11-20T04:26:35;3.75;;;1.50;;
29984;SDS011;17387;42.690;23.328;2022-11-20T04:29:01;4.47;;;1.33;;
29984;SDS011;17387;42.690;23.328;2022-11-20T04:31:29;3.78;;;1.33;;
29984;SDS011;17387;42.690;23.328;2022-11-20T04:33:58;2.92;;;1.17;;
29984;SDS011;17387;42.690;23.328;2022-11-20T04:36:29;5.43;;;1.20;;
29984;SDS011;17387;42.690;23.328;2022-11-20T04:38:55;5.95;;;0.98;;
29984;SDS011;17387;42.690;23.328;2022-11-20T04:41:29;5.85;;;1.05;;
29984;SDS011;17387;42.690;23.328;2022-11-20T04:43:59;4.18;;;1.50;;
29984;SDS011;17387;42.690;23.328;2022-11-20T04:46:28;4.85;;;1.40;;
29984;SDS011;17387;42.690;23.328;2022-11-20T04:48:55;4.93;;;1.33;;
29984;SDS011;17387;42.690;23.328;2022-11-20T04:51:21;4.22;;;1.30;;
29984;SDS011;17387;42.690;23.328;2022-11-20T04:53:47;3.22;;;1.00;;
29984;SDS011;17387;42.690;23.328;2022-11-20T04:56:12;4.10;;;1.10;;
29984;SDS011;17387;42.690;23.328;2022-11-20T04:58:38;4.70;;;1.40;;
29984;SDS011;17387;42.690;23.328;2022-11-20T05:01:10;1.65;;;1.00;;
29984;SDS011;17387;42.690;23.328;2022-11-20T05:03:35;5.75;;;1.00;;
29984;SDS011;17387;42.690;23.328;2022-11-20T05:06:02;2.55;;;1.00;;
29984;SDS011;17387;42.690;23.328;2022-11-20T05:08:28;4.68;;;1.10;;
29984;SDS011;17387;42.690;23.328;2022-11-20T05:10:58;2.78;;;0.90;;
29984;SDS011;17387;42.690;23.328;2022-11-20T05:13:31;5.32;;;1.20;;
29984;SDS011;17387;42.690;23.328;2022-11-20T05:16:00;3.97;;;0.90;;
29984;SDS011;17387;42.690;23.328;2022-11-20T05:18:30;4.32;;;0.80;;
29984;SDS011;17387;42.690;23.328;2022-11-20T05:20:56;5.38;;;1.20;;
29984;SDS011;17387;42.690;23.328;2022-11-20T05:23:23;4.75;;;1.00;;
29984;SDS011;17387;42.690;23.328;2022-11-20T05:25:52;4.47;;;1.13;;
29984;SDS011;17387;42.690;23.328;2022-11-20T05:28:19;6.00;;;1.10;;
29984;SDS011;17387;42.690;23.328;2022-11-20T05:30:45;3.67;;;0.90;;
29984;SDS011;17387;42.690;23.328;2022-11-20T05:33:10;4.68;;;1.00;;
29984;SDS011;17387;42.690;23.328;2022-11-20T05:35:35;3.33;;;1.10;;
29984;SDS011;17387;42.690;23.328;2022-11-20T05:38:01;6.35;;;1.10;;
29984;SDS011;17387;42.690;23.328;2022-11-20T05:40:26;6.72;;;1.35;;
29984;SDS011;17387;42.690;23.328;2022-11-20T05:42:54;4.30;;;0.90;;
29984;SDS011;17387;42.690;23.328;2022-11-20T05:45:20;3.03;;;1.08;;
29984;SDS011;17387;42.690;23.328;2022-11-20T05:47:45;3.60;;;1.20;;
29984;SDS011;17387;42.690;23.328;2022-11-20T05:50:10;4.07;;;1.30;;
29984;SDS011;17387;42.690;23.328;2022-11-20T05:52:36;3.17;;;1.40;;
29984;SDS011;17387;42.690;23.328;2022-11-20T05:55:01;3.95;;;1.70;;
29984;SDS011;17387;42.690;23.328;2022-11-20T05:57:27;7.68;;;1.40;;
29984;SDS011;17387;42.690;23.328;2022-11-20T05:59:52;6.88;;;1.50;;
29984;SDS011;17387;42.690;23.328;2022-11-20T06:02:18;3.13;;;1.27;;
29984;SDS011;17387;42.690;23.328;2022-11-20T06:04:43;4.00;;;1.30;;
29984;SDS011;17387;42.690;23.328;2022-11-20T06:07:09;7.72;;;1.65;;
29984;SDS011;17387;42.690;23.328;2022-11-20T06:09:34;5.78;;;1.38;;
29984;SDS011;17387;42.690;23.328;2022-11-20T06:12:00;3.05;;;1.40;;
29984;SDS011;17387;42.690;23.328;2022-11-20T06:14:25;3.30;;;1.17;;
29984;SDS011;17387;42.690;23.328;2022-11-20T06:16:50;3.08;;;1.33;;
29984;SDS011;17387;42.690;23.328;2022-11-20T06:19:16;5.72;;;1.50;;
29984;SDS011;17387;42.690;23.328;2022-11-20T06:21:41;5.88;;;1.45;;
29984;SDS011;17387;42.690;23.328;2022-11-20T06:24:08;7.47;;;1.58;;
29984;SDS011;17387;42.690;23.328;2022-11-20T06:26:35;5.85;;;1.60;;
29984;SDS011;17387;42.690;23.328;2022-11-20T06:29:00;3.42;;;1.30;;
29984;SDS011;17387;42.690;23.328;2022-11-20T06:31:25;6.10;;;1.35;;
29984;SDS011;17387;42.690;23.328;2022-11-20T06:33:51;6.95;;;1.63;;
29984;SDS011;17387;42.690;23.328;2022-11-20T06:36:19;4.55;;;1.27;;
29984;SDS011;17387;42.690;23.328;2022-11-20T06:38:46;4.60;;;1.30;;
29984;SDS011;17387;42.690;23.328;2022-11-20T06:41:12;7.00;;;1.40;;
29984;SDS011;17387;42.690;23.328;2022-11-20T06:43:40;5.70;;;1.40;;
29984;SDS011;17387;42.690;23.328;2022-11-20T06:46:05;8.50;;;1.60;;
29984;SDS011;17387;42.690;23.328;2022-11-20T06:48:31;3.75;;;1.40;;
29984;SDS011;17387;42.690;23.328;2022-11-20T06:50:57;8.85;;;1.75;;
29984;SDS011;17387;42.690;23.328;2022-11-20T06:53:23;9.57;;;1.50;;
29984;SDS011;17387;42.690;23.328;2022-11-20T06:55:50;8.10;;;1.70;;
29984;SDS011;17387;42.690;23.328;2022-11-20T06:58:16;5.57;;;2.03;;
29984;SDS011;17387;42.690;23.328;2022-11-20T07:00:42;12.20;;;3.08;;
29984;SDS011;17387;42.690;23.328;2022-11-20T07:03:08;9.60;;;3.30;;
29984;SDS011;17387;42.690;23.328;2022-11-20T07:05:34;30.98;;;11.38;;
29984;SDS011;17387;42.690;23.328;2022-11-20T07:08:00;19.55;;;7.03;;
29984;SDS011;17387;42.690;23.328;2022-11-20T07:10:26;6.85;;;1.80;;
29984;SDS011;17387;42.690;23.328;2022-11-20T07:12:52;6.65;;;1.83;;
29984;SDS011;17387;42.690;23.328;2022-11-20T07:15:19;5.80;;;1.70;;
29984;SDS011;17387;42.690;23.328;2022-11-20T07:17:45;4.60;;;1.20;;
29984;SDS011;17387;42.690;23.328;2022-11-20T07:20:11;3.80;;;1.55;;
29984;SDS011;17387;42.690;23.328;2022-11-20T07:22:37;6.55;;;1.70;;
29984;SDS011;17387;42.690;23.328;2022-11-20T07:25:03;4.60;;;1.50;;
29984;SDS011;17387;42.690;23.328;2022-11-20T07:27:29;7.13;;;2.00;;
29984;SDS011;17387;42.690;23.328;2022-11-20T07:29:54;10.05;;;1.88;;
29984;SDS011;17387;42.690;23.328;2022-11-20T07:32:20;3.85;;;1.75;;
29984;SDS011;17387;42.690;23.328;2022-11-20T07:34:45;7.38;;;1.90;;
29984;SDS011;17387;42.690;23.328;2022-11-20T07:37:11;5.63;;;1.40;;
29984;SDS011;17387;42.690;23.328;2022-11-20T07:39:36;3.50;;;1.50;;
29984;SDS011;17387;42.690;23.328;2022-11-20T07:42:02;6.78;;;1.70;;
29984;SDS011;17387;42.690;23.328;2022-11-20T07:44:27;8.20;;;3.47;;
29984;SDS011;17387;42.690;23.328;2022-11-20T07:46:53;41.88;;;21.75;;
29984;SDS011;17387;42.690;23.328;2022-11-20T07:49:18;17.20;;;6.13;;
29984;SDS011;17387;42.690;23.328;2022-11-20T07:51:43;8.23;;;3.08;;
29984;SDS011;17387;42.690;23.328;2022-11-20T07:54:09;2.92;;;1.70;;
29984;SDS011;17387;42.690;23.328;2022-11-20T07:56:34;6.88;;;2.20;;
29984;SDS011;17387;42.690;23.328;2022-11-20T07:58:59;12.35;;;3.83;;
29984;SDS011;17387;42.690;23.328;2022-11-20T08:01:25;4.78;;;1.80;;
29984;SDS011;17387;42.690;23.328;2022-11-20T08:03:50;7.65;;;2.30;;
29984;SDS011;17387;42.690;23.328;2022-11-20T08:06:16;24.35;;;12.38;;
29984;SDS011;17387;42.690;23.328;2022-11-20T08:08:42;8.85;;;2.78;;
29984;SDS011;17387;42.690;23.328;2022-11-20T08:11:07;5.45;;;1.90;;
29984;SDS011;17387;42.690;23.328;2022-11-20T08:13:51;9.32;;;5.18;;
29984;SDS011;17387;42.690;23.328;2022-11-20T08:16:35;24.27;;;12.40;;
29984;SDS011;17387;42.690;23.328;2022-11-20T08:19:01;6.32;;;3.10;;
29984;SDS011;17387;42.690;23.328;2022-11-20T08:21:26;4.55;;;2.17;;
29984;SDS011;17387;42.690;23.328;2022-11-20T08:23:51;5.13;;;1.80;;
29984;SDS011;17387;42.690;23.328;2022-11-20T08:26:17;7.35;;;2.72;;
29984;SDS011;17387;42.690;23.328;2022-11-20T08:28:42;5.80;;;2.17;;
29984;SDS011;17387;42.690;23.328;2022-11-20T08:31:09;7.43;;;2.20;;
29984;SDS011;17387;42.690;23.328;2022-11-20T08:33:34;6.63;;;2.65;;
29984;SDS011;17387;42.690;23.328;2022-11-20T08:36:00;10.90;;;2.78;;
29984;SDS011;17387;42.690;23.328;2022-11-20T08:38:30;8.60;;;3.20;;
29984;SDS011;17387;42.690;23.328;2022-11-20T08:40:56;6.65;;;2.10;;
29984;SDS011;17387;42.690;23.328;2022-11-20T08:43:41;7.82;;;2.17;;
29984;SDS011;17387;42.690;23.328;2022-11-20T08:46:07;7.35;;;1.42;;
29984;SDS011;17387;42.690;23.328;2022-11-20T08:48:32;11.63;;;3.08;;
29984;SDS011;17387;42.690;23.328;2022-11-20T08:50:58;6.90;;;1.98;;
29984;SDS011;17387;42.690;23.328;2022-11-20T08:53:24;10.80;;;1.52;;
29984;SDS011;17387;42.690;23.328;2022-11-20T08:55:50;8.80;;;1.80;;
29984;SDS011;17387;42.690;23.328;2022-11-20T08:58:15;12.25;;;4.05;;
29984;SDS011;17387;42.690;23.328;2022-11-20T09:00:40;7.00;;;2.80;;
29984;SDS011;17387;42.690;23.328;2022-11-20T09:03:06;9.60;;;3.63;;
29984;SDS011;17387;42.690;23.328;2022-11-20T09:05:31;13.63;;;4.97;;
29984;SDS011;17387;42.690;23.328;2022-11-20T09:07:57;10.18;;;4.07;;
29984;SDS011;17387;42.690;23.328;2022-11-20T09:10:23;6.65;;;3.40;;
29984;SDS011;17387;42.690;23.328;2022-11-20T09:12:49;5.90;;;3.58;;
29984;SDS011;17387;42.690;23.328;2022-11-20T09:15:14;9.02;;;4.22;;
29984;SDS011;17387;42.690;23.328;2022-11-20T09:17:40;11.32;;;3.80;;
29984;SDS011;17387;42.690;23.328;2022-11-20T09:20:05;12.57;;;5.00;;
29984;SDS011;17387;42.690;23.328;2022-11-20T09:22:31;10.80;;;4.07;;
29984;SDS011;17387;42.690;23.328;2022-11-20T09:24:56;13.43;;;4.30;;
29984;SDS011;17387;42.690;23.328;2022-11-20T09:27:22;8.60;;;3.88;;
29984;SDS011;17387;42.690;23.328;2022-11-20T09:29:47;7.43;;;2.78;;
29984;SDS011;17387;42.690;23.328;2022-11-20T09:32:12;8.98;;;3.20;;
29984;SDS011;17387;42.690;23.328;2022-11-20T09:34:38;7.68;;;3.80;;
29984;SDS011;17387;42.690;23.328;2022-11-20T09:37:03;5.93;;;2.28;;
29984;SDS011;17387;42.690;23.328;2022-11-20T09:39:28;5.18;;;2.22;;
29984;SDS011;17387;42.690;23.328;2022-11-20T09:42:14;5.05;;;2.00;;
29984;SDS011;17387;42.690;23.328;2022-11-20T09:45:11;5.07;;;2.22;;
29984;SDS011;17387;42.690;23.328;2022-11-20T09:55:31;5.55;;;2.22;;
29984;SDS011;17387;42.690;23.328;2022-11-20T09:57:56;5.43;;;2.75;;
29984;SDS011;17387;42.690;23.328;2022-11-20T10:00:24;5.35;;;2.33;;
29984;SDS011;17387;42.690;23.328;2022-11-20T10:02:59;7.97;;;2.60;;
29984;SDS011;17387;42.690;23.328;2022-11-20T10:05:35;8.25;;;2.88;;
29984;SDS011;17387;42.690;23.328;2022-11-20T10:08:21;7.60;;;2.55;;
29984;SDS011;17387;42.690;23.328;2022-11-20T10:11:04;10.88;;;3.25;;
29984;SDS011;17387;42.690;23.328;2022-11-20T10:21:47;15.98;;;5.18;;
29984;SDS011;17387;42.690;23.328;2022-11-20T10:29:57;19.48;;;7.20;;
29984;SDS011;17387;42.690;23.328;2022-11-20T10:32:30;15.10;;;4.95;;
29984;SDS011;17387;42.690;23.328;2022-11-20T10:35:20;8.07;;;4.90;;
29984;SDS011;17387;42.690;23.328;2022-11-20T10:37:51;10.52;;;5.57;;
29984;SDS011;17387;42.690;23.328;2022-11-20T10:40:29;14.55;;;5.57;;
29984;SDS011;17387;42.690;23.328;2022-11-20T10:43:00;12.32;;;4.85;;
29984;SDS011;17387;42.690;23.328;2022-11-20T10:45:40;11.50;;;4.40;;
29984;SDS011;17387;42.690;23.328;2022-11-20T10:48:19;13.35;;;5.82;;
29984;SDS011;17387;42.690;23.328;2022-11-20T10:56:05;11.37;;;4.27;;
29984;SDS011;17387;42.690;23.328;2022-11-20T11:01:13;11.85;;;4.60;;
29984;SDS011;17387;42.690;23.328;2022-11-20T11:03:42;20.20;;;5.07;;
29984;SDS011;17387;42.690;23.328;2022-11-20T11:06:12;13.73;;;5.00;;
29984;SDS011;17387;42.690;23.328;2022-11-20T11:08:41;16.95;;;4.00;;
29984;SDS011;17387;42.690;23.328;2022-11-20T11:13:51;10.05;;;2.50;;
29984;SDS011;17387;42.690;23.328;2022-11-20T11:16:21;8.05;;;2.58;;
29984;SDS011;17387;42.690;23.328;2022-11-20T11:21:13;8.40;;;3.78;;
29984;SDS011;17387;42.690;23.328;2022-11-20T11:23:48;5.32;;;1.95;;
29984;SDS011;17387;42.690;23.328;2022-11-20T11:26:24;5.35;;;1.75;;
29984;SDS011;17387;42.690;23.328;2022-11-20T11:28:54;5.18;;;1.45;;
29984;SDS011;17387;42.690;23.328;2022-11-20T11:31:22;3.70;;;1.40;;
29984;SDS011;17387;42.690;23.328;2022-11-20T11:33:51;5.25;;;2.42;;
29984;SDS011;17387;42.690;23.328;2022-11-20T11:36:17;7.75;;;2.00;;
29984;SDS011;17387;42.690;23.328;2022-11-20T11:38:48;6.05;;;1.90;;
29984;SDS011;17387;42.690;23.328;2022-11-20T11:41:22;11.43;;;2.30;;
29984;SDS011;17387;42.690;23.328;2022-11-20T11:43:52;14.70;;;6.78;;
29984;SDS011;17387;42.690;23.328;2022-11-20T11:46:39;7.82;;;3.17;;
29984;SDS011;17387;42.690;23.328;2022-11-20T11:59:41;7.93;;;2.10;;
29984;SDS011;17387;42.690;23.328;2022-11-20T12:04:54;7.80;;;2.28;;
29984;SDS011;17387;42.690;23.328;2022-11-20T12:07:38;7.50;;;1.83;;
29984;SDS011;17387;42.690;23.328;2022-11-20T12:12:58;7.40;;;1.30;;
29984;SDS011;17387;42.690;23.328;2022-11-20T12:15:30;4.95;;;1.50;;
29984;SDS011;17387;42.690;23.328;2022-11-20T12:17:56;4.82;;;1.23;;
29984;SDS011;17387;42.690;23.328;2022-11-20T12:20:24;8.23;;;1.80;;
29984;SDS011;17387;42.690;23.328;2022-11-20T12:25:27;8.88;;;1.90;;
29984;SDS011;17387;42.690;23.328;2022-11-20T12:30:20;4.50;;;1.60;;
29984;SDS011;17387;42.690;23.328;2022-11-20T12:35:44;3.97;;;1.65;;
29984;SDS011;17387;42.690;23.328;2022-11-20T12:43:46;7.78;;;2.60;;
29984;SDS011;17387;42.690;23.328;2022-11-20T12:49:20;5.47;;;1.58;;
29984;SDS011;17387;42.690;23.328;2022-11-20T12:57:29;13.75;;;6.35;;
29984;SDS011;17387;42.690;23.328;2022-11-20T13:05:59;6.70;;;3.60;;
29984;SDS011;17387;42.690;23.328;2022-11-20T13:08:55;9.30;;;3.15;;
29984;SDS011;17387;42.690;23.328;2022-11-20T13:19:56;10.57;;;4.07;;
29984;SDS011;17387;42.690;23.328;2022-11-20T13:22:27;15.52;;;4.93;;
29984;SDS011;17387;42.690;23.328;2022-11-20T13:24:54;8.32;;;3.75;;
29984;SDS011;17387;42.690;23.328;2022-11-20T13:27:23;7.60;;;3.40;;
29984;SDS011;17387;42.690;23.328;2022-11-20T13:35:30;11.90;;;5.00;;
29984;SDS011;17387;42.690;23.328;2022-11-20T13:40:33;10.82;;;5.15;;
29984;SDS011;17387;42.690;23.328;2022-11-20T13:45:54;13.90;;;7.70;;
29984;SDS011;17387;42.690;23.328;2022-11-20T13:48:43;14.38;;;6.03;;
29984;SDS011;17387;42.690;23.328;2022-11-20T13:54:03;14.90;;;5.22;;
29984;SDS011;17387;42.690;23.328;2022-11-20T14:02:46;12.05;;;5.50;;
29984;SDS011;17387;42.690;23.328;2022-11-20T14:05:24;12.38;;;5.95;;
29984;SDS011;17387;42.690;23.328;2022-11-20T14:07:50;14.65;;;7.65;;
29984;SDS011;17387;42.690;23.328;2022-11-20T14:10:19;14.55;;;7.13;;
29984;SDS011;17387;42.690;23.328;2022-11-20T14:12:47;15.52;;;6.43;;
29984;SDS011;17387;42.690;23.328;2022-11-20T14:15:23;12.50;;;6.75;;
29984;SDS011;17387;42.690;23.328;2022-11-20T14:17:53;18.37;;;7.00;;
29984;SDS011;17387;42.690;23.328;2022-11-20T14:20:19;13.00;;;6.65;;
29984;SDS011;17387;42.690;23.328;2022-11-20T14:22:51;14.82;;;6.75;;
29984;SDS011;17387;42.690;23.328;2022-11-20T14:27:43;15.05;;;7.68;;
29984;SDS011;17387;42.690;23.328;2022-11-20T14:32:43;15.77;;;7.97;;
29984;SDS011;17387;42.690;23.328;2022-11-20T14:35:14;15.93;;;8.65;;
29984;SDS011;17387;42.690;23.328;2022-11-20T14:37:46;14.45;;;7.18;;
29984;SDS011;17387;42.690;23.328;2022-11-20T14:42:57;10.60;;;5.22;;
29984;SDS011;17387;42.690;23.328;2022-11-20T14:45:24;7.15;;;4.47;;
29984;SDS011;17387;42.690;23.328;2022-11-20T14:47:55;7.20;;;3.10;;
29984;SDS011;17387;42.690;23.328;2022-11-20T14:50:27;9.30;;;3.78;;
29984;SDS011;17387;42.690;23.328;2022-11-20T14:52:58;10.55;;;4.28;;
29984;SDS011;17387;42.690;23.328;2022-11-20T14:55:32;9.23;;;3.67;;
29984;SDS011;17387;42.690;23.328;2022-11-20T14:58:03;6.57;;;3.10;;
29984;SDS011;17387;42.690;23.328;2022-11-20T15:00:32;8.50;;;3.17;;
29984;SDS011;17387;42.690;23.328;2022-11-20T15:02:59;7.90;;;3.58;;
29984;SDS011;17387;42.690;23.328;2022-11-20T15:05:47;9.32;;;3.72;;
29984;SDS011;17387;42.690;23.328;2022-11-20T15:08:14;6.43;;;2.88;;
29984;SDS011;17387;42.690;23.328;2022-11-20T15:10:47;6.22;;;2.85;;
29984;SDS011;17387;42.690;23.328;2022-11-20T15:13:25;7.43;;;3.22;;
29984;SDS011;17387;42.690;23.328;2022-11-20T15:15:55;7.32;;;3.53;;
29984;SDS011;17387;42.690;23.328;2022-11-20T15:18:32;7.55;;;3.75;;
29984;SDS011;17387;42.690;23.328;2022-11-20T15:21:09;6.43;;;4.20;;
29984;SDS011;17387;42.690;23.328;2022-11-20T15:23:39;8.30;;;3.97;;
29984;SDS011;17387;42.690;23.328;2022-11-20T15:26:05;5.88;;;3.63;;
29984;SDS011;17387;42.690;23.328;2022-11-20T15:28:36;8.48;;;4.53;;
29984;SDS011;17387;42.690;23.328;2022-11-20T15:31:04;10.35;;;4.70;;
29984;SDS011;17387;42.690;23.328;2022-11-20T15:33:31;8.73;;;5.20;;
29984;SDS011;17387;42.690;23.328;2022-11-20T15:35:57;9.70;;;5.40;;
29984;SDS011;17387;42.690;23.328;2022-11-20T15:38:22;9.57;;;6.35;;
29984;SDS011;17387;42.690;23.328;2022-11-20T15:40:48;12.45;;;5.45;;
29984;SDS011;17387;42.690;23.328;2022-11-20T15:43:14;12.63;;;6.22;;
29984;SDS011;17387;42.690;23.328;2022-11-20T15:45:41;11.13;;;5.45;;
29984;SDS011;17387;42.690;23.328;2022-11-20T15:48:11;8.13;;;4.05;;
29984;SDS011;17387;42.690;23.328;2022-11-20T15:50:59;6.55;;;3.15;;
29984;SDS011;17387;42.690;23.328;2022-11-20T15:53:29;8.25;;;3.70;;
29984;SDS011;17387;42.690;23.328;2022-11-20T15:55:55;7.53;;;3.13;;
29984;SDS011;17387;42.690;23.328;2022-11-20T15:58:20;8.63;;;3.20;;
29984;SDS011;17387;42.690;23.328;2022-11-20T16:00:47;10.15;;;3.22;;
29984;SDS011;17387;42.690;23.328;2022-11-20T16:03:14;7.78;;;3.00;;
29984;SDS011;17387;42.690;23.328;2022-11-20T16:05:40;7.88;;;3.45;;
29984;SDS011;17387;42.690;23.328;2022-11-20T16:08:06;6.65;;;3.40;;
29984;SDS011;17387;42.690;23.328;2022-11-20T16:10:31;7.57;;;4.40;;
29984;SDS011;17387;42.690;23.328;2022-11-20T16:12:57;7.90;;;3.00;;
29984;SDS011;17387;42.690;23.328;2022-11-20T16:15:41;9.18;;;4.00;;
29984;SDS011;17387;42.690;23.328;2022-11-20T16:18:10;13.07;;;4.90;;
29984;SDS011;17387;42.690;23.328;2022-11-20T16:20:38;9.10;;;4.53;;
29984;SDS011;17387;42.690;23.328;2022-11-20T16:23:04;11.07;;;3.97;;
29984;SDS011;17387;42.690;23.328;2022-11-20T16:25:31;8.48;;;3.90;;
29984;SDS011;17387;42.690;23.328;2022-11-20T16:27:56;9.38;;;4.80;;
29984;SDS011;17387;42.690;23.328;2022-11-20T16:30:21;10.05;;;5.13;;
29984;SDS011;17387;42.690;23.328;2022-11-20T16:32:47;7.50;;;4.80;;
29984;SDS011;17387;42.690;23.328;2022-11-20T16:35:13;8.05;;;4.60;;
29984;SDS011;17387;42.690;23.328;2022-11-20T16:37:38;28.00;;;8.82;;
29984;SDS011;17387;42.690;23.328;2022-11-20T16:40:04;16.25;;;7.18;;
29984;SDS011;17387;42.690;23.328;2022-11-20T16:42:34;5.43;;;2.72;;
29984;SDS011;17387;42.690;23.328;2022-11-20T16:45:00;12.68;;;8.02;;
29984;SDS011;17387;42.690;23.328;2022-11-20T16:47:25;8.32;;;3.88;;